sensor_id;sensor_type;location;lat;lon;timestamp;P1;durP1;ratioP1;P2;durP2;ratioP2
11504;SDS011;5809;53.262;10.408;2022-09-17T00:00:21;23.90;;;4.40;;
11504;SDS011;5809;53.262;10.408;2022-09-17T00:02:48;27.20;;;4.60;;
11504;SDS011;5809;53.262;10.408;2022-09-17T00:05:19;32.47;;;5.53;;
11504;SDS011;5809;53.262;10.408;2022-09-17T00:07:47;21.37;;;4.43;;
11504;SDS011;5809;53.262;10.408;2022-09-17T00:10:15;31.63;;;6.13;;
11504;SDS011;5809;53.262;10.408;2022-09-17T00:12:42;28.30;;;4.80;;
11504;SDS011;5809;53.262;10.408;2022-09-17T00:15:09;25.40;;;4.50;;
11504;SDS011;5809;53.262;10.408;2022-09-17T00:17:38;27.60;;;5.20;;
11504;SDS011;5809;53.262;10.408;2022-09-17T00:20:06;24.40;;;4.80;;
11504;SDS011;5809;53.262;10.408;2022-09-17T00:22:34;27.03;;;4.83;;
11504;SDS011;5809;53.262;10.408;2022-09-17T00:25:01;23.07;;;4.47;;
11504;SDS011;5809;53.262;10.408;2022-09-17T00:27:29;38.40;;;5.23;;
11504;SDS011;5809;53.262;10.408;2022-09-17T00:29:56;28.77;;;5.20;;
11504;SDS011;5809;53.262;10.408;2022-09-17T00:32:23;23.63;;;4.60;;
11504;SDS011;5809;53.262;10.408;2022-09-17T00:34:53;18.40;;;4.83;;
11504;SDS011;5809;53.262;10.408;2022-09-17T00:37:20;23.40;;;4.80;;
11504;SDS011;5809;53.262;10.408;2022-09-17T00:39:47;25.93;;;4.43;;
11504;SDS011;5809;53.262;10.408;2022-09-17T00:42:14;21.77;;;4.37;;
11504;SDS011;5809;53.262;10.408;2022-09-17T00:44:45;22.77;;;4.60;;
11504;SDS011;5809;53.262;10.408;2022-09-17T00:47:18;27.50;;;4.20;;
11504;SDS011;5809;53.262;10.408;2022-09-17T00:49:56;28.47;;;4.97;;
11504;SDS011;5809;53.262;10.408;2022-09-17T00:52:27;26.97;;;5.00;;
11504;SDS011;5809;53.262;10.408;2022-09-17T00:54:59;26.93;;;5.53;;
11504;SDS011;5809;53.262;10.408;2022-09-17T00:57:30;23.00;;;4.13;;
11504;SDS011;5809;53.262;10.408;2022-09-17T00:59:58;18.03;;;4.23;;
11504;SDS011;5809;53.262;10.408;2022-09-17T01:02:25;22.90;;;4.33;;
11504;SDS011;5809;53.262;10.408;2022-09-17T01:04:52;25.90;;;4.37;;
11504;SDS011;5809;53.262;10.408;2022-09-17T01:07:31;26.83;;;4.13;;
11504;SDS011;5809;53.262;10.408;2022-09-17T01:10:10;26.73;;;4.33;;
11504;SDS011;5809;53.262;10.408;2022-09-17T01:12:48;24.50;;;4.83;;
11504;SDS011;5809;53.262;10.408;2022-09-17T01:15:26;21.50;;;4.13;;
11504;SDS011;5809;53.262;10.408;2022-09-17T01:18:04;37.50;;;4.83;;
11504;SDS011;5809;53.262;10.408;2022-09-17T01:20:49;24.47;;;4.60;;
11504;SDS011;5809;53.262;10.408;2022-09-17T01:23:47;26.10;;;4.93;;
11504;SDS011;5809;53.262;10.408;2022-09-17T01:26:37;26.00;;;4.13;;
11504;SDS011;5809;53.262;10.408;2022-09-17T01:29:33;29.43;;;4.77;;
11504;SDS011;5809;53.262;10.408;2022-09-17T01:32:10;22.93;;;4.77;;
11504;SDS011;5809;53.262;10.408;2022-09-17T01:34:43;35.50;;;4.47;;
11504;SDS011;5809;53.262;10.408;2022-09-17T01:37:17;29.13;;;4.50;;
11504;SDS011;5809;53.262;10.408;2022-09-17T01:39:55;22.63;;;3.77;;
11504;SDS011;5809;53.262;10.408;2022-09-17T01:42:28;18.07;;;3.53;;
11504;SDS011;5809;53.262;10.408;2022-09-17T01:45:03;25.00;;;3.67;;
11504;SDS011;5809;53.262;10.408;2022-09-17T01:47:42;26.57;;;4.40;;
11504;SDS011;5809;53.262;10.408;2022-09-17T01:50:15;25.77;;;4.37;;
11504;SDS011;5809;53.262;10.408;2022-09-17T01:52:46;25.63;;;3.97;;
11504;SDS011;5809;53.262;10.408;2022-09-17T01:55:17;21.07;;;3.47;;
11504;SDS011;5809;53.262;10.408;2022-09-17T01:57:47;24.17;;;4.10;;
11504;SDS011;5809;53.262;10.408;2022-09-17T02:00:20;16.53;;;4.00;;
11504;SDS011;5809;53.262;10.408;2022-09-17T02:02:49;18.40;;;3.87;;
11504;SDS011;5809;53.262;10.408;2022-09-17T02:05:21;23.20;;;3.90;;
11504;SDS011;5809;53.262;10.408;2022-09-17T02:07:53;20.40;;;3.93;;
11504;SDS011;5809;53.262;10.408;2022-09-17T02:10:24;23.23;;;4.13;;
11504;SDS011;5809;53.262;10.408;2022-09-17T02:12:55;15.00;;;3.20;;
11504;SDS011;5809;53.262;10.408;2022-09-17T02:15:27;19.27;;;3.40;;
11504;SDS011;5809;53.262;10.408;2022-09-17T02:18:02;22.43;;;3.97;;
11504;SDS011;5809;53.262;10.408;2022-09-17T02:20:34;20.00;;;3.77;;
11504;SDS011;5809;53.262;10.408;2022-09-17T02:23:07;19.80;;;4.07;;
11504;SDS011;5809;53.262;10.408;2022-09-17T02:25:41;21.33;;;3.77;;
11504;SDS011;5809;53.262;10.408;2022-09-17T02:28:16;24.10;;;3.77;;
11504;SDS011;5809;53.262;10.408;2022-09-17T02:30:49;20.83;;;3.53;;
11504;SDS011;5809;53.262;10.408;2022-09-17T02:33:17;21.63;;;3.57;;
11504;SDS011;5809;53.262;10.408;2022-09-17T02:35:45;20.43;;;3.97;;
11504;SDS011;5809;53.262;10.408;2022-09-17T02:38:12;20.23;;;3.23;;
11504;SDS011;5809;53.262;10.408;2022-09-17T02:40:40;17.17;;;3.30;;
11504;SDS011;5809;53.262;10.408;2022-09-17T02:43:14;21.77;;;3.90;;
11504;SDS011;5809;53.262;10.408;2022-09-17T02:45:51;14.97;;;3.10;;
11504;SDS011;5809;53.262;10.408;2022-09-17T02:48:40;15.17;;;2.90;;
11504;SDS011;5809;53.262;10.408;2022-09-17T02:51:27;19.30;;;3.87;;
11504;SDS011;5809;53.262;10.408;2022-09-17T02:54:03;19.57;;;3.20;;
11504;SDS011;5809;53.262;10.408;2022-09-17T02:56:39;18.43;;;3.53;;
11504;SDS011;5809;53.262;10.408;2022-09-17T02:59:12;18.37;;;3.37;;
11504;SDS011;5809;53.262;10.408;2022-09-17T03:01:45;19.00;;;3.70;;
11504;SDS011;5809;53.262;10.408;2022-09-17T03:04:18;18.30;;;3.80;;
11504;SDS011;5809;53.262;10.408;2022-09-17T03:06:47;18.07;;;3.10;;
11504;SDS011;5809;53.262;10.408;2022-09-17T03:09:14;16.97;;;3.07;;
11504;SDS011;5809;53.262;10.408;2022-09-17T03:11:41;22.03;;;3.37;;
11504;SDS011;5809;53.262;10.408;2022-09-17T03:14:08;17.07;;;3.30;;
11504;SDS011;5809;53.262;10.408;2022-09-17T03:16:35;11.63;;;2.87;;
11504;SDS011;5809;53.262;10.408;2022-09-17T03:19:03;18.07;;;3.30;;
11504;SDS011;5809;53.262;10.408;2022-09-17T03:21:31;18.80;;;3.30;;
11504;SDS011;5809;53.262;10.408;2022-09-17T03:23:58;17.77;;;3.30;;
11504;SDS011;5809;53.262;10.408;2022-09-17T03:26:25;14.20;;;3.43;;
11504;SDS011;5809;53.262;10.408;2022-09-17T03:28:52;20.80;;;3.23;;
11504;SDS011;5809;53.262;10.408;2022-09-17T03:31:19;11.80;;;3.50;;
11504;SDS011;5809;53.262;10.408;2022-09-17T03:33:46;13.57;;;2.97;;
11504;SDS011;5809;53.262;10.408;2022-09-17T03:36:14;12.77;;;2.80;;
11504;SDS011;5809;53.262;10.408;2022-09-17T03:38:42;16.70;;;3.03;;
11504;SDS011;5809;53.262;10.408;2022-09-17T03:41:09;16.97;;;3.37;;
11504;SDS011;5809;53.262;10.408;2022-09-17T03:43:36;17.43;;;3.57;;
11504;SDS011;5809;53.262;10.408;2022-09-17T03:46:04;16.10;;;3.13;;
11504;SDS011;5809;53.262;10.408;2022-09-17T03:48:31;14.20;;;3.03;;
11504;SDS011;5809;53.262;10.408;2022-09-17T03:51:01;13.30;;;2.50;;
11504;SDS011;5809;53.262;10.408;2022-09-17T03:53:28;12.90;;;2.60;;
11504;SDS011;5809;53.262;10.408;2022-09-17T03:55:57;10.47;;;2.57;;
11504;SDS011;5809;53.262;10.408;2022-09-17T03:58:25;8.60;;;2.00;;
11504;SDS011;5809;53.262;10.408;2022-09-17T04:00:52;8.67;;;2.10;;
11504;SDS011;5809;53.262;10.408;2022-09-17T04:03:21;12.53;;;2.27;;
11504;SDS011;5809;53.262;10.408;2022-09-17T04:05:49;12.20;;;2.53;;
11504;SDS011;5809;53.262;10.408;2022-09-17T04:08:16;13.37;;;2.33;;
11504;SDS011;5809;53.262;10.408;2022-09-17T04:10:43;16.63;;;2.53;;
11504;SDS011;5809;53.262;10.408;2022-09-17T04:13:11;16.20;;;2.47;;
11504;SDS011;5809;53.262;10.408;2022-09-17T04:15:40;13.47;;;2.87;;
11504;SDS011;5809;53.262;10.408;2022-09-17T04:18:07;14.50;;;2.77;;
11504;SDS011;5809;53.262;10.408;2022-09-17T04:20:34;15.40;;;2.73;;
11504;SDS011;5809;53.262;10.408;2022-09-17T04:23:00;7.03;;;2.10;;
11504;SDS011;5809;53.262;10.408;2022-09-17T04:25:28;10.17;;;2.50;;
11504;SDS011;5809;53.262;10.408;2022-09-17T04:27:55;12.03;;;2.67;;
11504;SDS011;5809;53.262;10.408;2022-09-17T04:30:23;11.27;;;2.93;;
11504;SDS011;5809;53.262;10.408;2022-09-17T04:32:50;11.50;;;2.73;;
11504;SDS011;5809;53.262;10.408;2022-09-17T04:35:17;10.67;;;2.63;;
11504;SDS011;5809;53.262;10.408;2022-09-17T04:37:50;11.40;;;2.43;;
11504;SDS011;5809;53.262;10.408;2022-09-17T04:40:17;14.53;;;2.60;;
11504;SDS011;5809;53.262;10.408;2022-09-17T04:42:44;12.90;;;3.40;;
11504;SDS011;5809;53.262;10.408;2022-09-17T04:45:11;16.40;;;3.10;;
11504;SDS011;5809;53.262;10.408;2022-09-17T04:47:40;14.80;;;2.53;;
11504;SDS011;5809;53.262;10.408;2022-09-17T04:50:07;9.97;;;2.47;;
11504;SDS011;5809;53.262;10.408;2022-09-17T04:52:35;11.83;;;2.50;;
11504;SDS011;5809;53.262;10.408;2022-09-17T04:55:02;16.00;;;2.30;;
11504;SDS011;5809;53.262;10.408;2022-09-17T04:57:29;12.10;;;2.87;;
11504;SDS011;5809;53.262;10.408;2022-09-17T04:59:56;13.57;;;2.37;;
11504;SDS011;5809;53.262;10.408;2022-09-17T05:02:23;11.63;;;2.53;;
11504;SDS011;5809;53.262;10.408;2022-09-17T05:04:51;12.17;;;2.93;;
11504;SDS011;5809;53.262;10.408;2022-09-17T05:07:21;14.33;;;2.77;;
11504;SDS011;5809;53.262;10.408;2022-09-17T05:09:48;11.93;;;2.70;;
11504;SDS011;5809;53.262;10.408;2022-09-17T05:12:15;14.20;;;2.33;;
11504;SDS011;5809;53.262;10.408;2022-09-17T05:14:42;8.33;;;2.23;;
11504;SDS011;5809;53.262;10.408;2022-09-17T05:17:09;11.10;;;2.50;;
11504;SDS011;5809;53.262;10.408;2022-09-17T05:19:36;12.57;;;2.40;;
11504;SDS011;5809;53.262;10.408;2022-09-17T05:22:04;18.20;;;3.10;;
11504;SDS011;5809;53.262;10.408;2022-09-17T05:24:31;14.07;;;2.87;;
11504;SDS011;5809;53.262;10.408;2022-09-17T05:27:01;11.83;;;2.40;;
11504;SDS011;5809;53.262;10.408;2022-09-17T05:29:28;13.33;;;2.80;;
11504;SDS011;5809;53.262;10.408;2022-09-17T05:31:55;14.67;;;3.03;;
11504;SDS011;5809;53.262;10.408;2022-09-17T05:34:23;17.50;;;2.87;;
11504;SDS011;5809;53.262;10.408;2022-09-17T05:36:50;9.47;;;2.33;;
11504;SDS011;5809;53.262;10.408;2022-09-17T05:39:18;14.47;;;2.43;;
11504;SDS011;5809;53.262;10.408;2022-09-17T05:41:49;11.90;;;2.23;;
11504;SDS011;5809;53.262;10.408;2022-09-17T05:44:16;10.00;;;2.13;;
11504;SDS011;5809;53.262;10.408;2022-09-17T05:46:43;10.33;;;1.77;;
11504;SDS011;5809;53.262;10.408;2022-09-17T05:49:10;13.03;;;2.83;;
11504;SDS011;5809;53.262;10.408;2022-09-17T05:51:39;10.43;;;2.40;;
11504;SDS011;5809;53.262;10.408;2022-09-17T05:54:06;8.60;;;2.10;;
11504;SDS011;5809;53.262;10.408;2022-09-17T05:59:03;12.17;;;2.33;;
11504;SDS011;5809;53.262;10.408;2022-09-17T06:01:30;10.37;;;2.20;;
11504;SDS011;5809;53.262;10.408;2022-09-17T06:03:57;11.90;;;2.30;;
11504;SDS011;5809;53.262;10.408;2022-09-17T06:06:27;14.23;;;2.53;;
11504;SDS011;5809;53.262;10.408;2022-09-17T06:08:55;11.20;;;2.00;;
11504;SDS011;5809;53.262;10.408;2022-09-17T06:11:22;10.17;;;2.20;;
11504;SDS011;5809;53.262;10.408;2022-09-17T06:13:51;7.67;;;2.27;;
11504;SDS011;5809;53.262;10.408;2022-09-17T06:16:20;10.60;;;2.47;;
11504;SDS011;5809;53.262;10.408;2022-09-17T06:18:48;11.60;;;2.40;;
11504;SDS011;5809;53.262;10.408;2022-09-17T06:21:17;12.60;;;2.90;;
11504;SDS011;5809;53.262;10.408;2022-09-17T06:23:45;12.80;;;2.60;;
11504;SDS011;5809;53.262;10.408;2022-09-17T06:26:13;9.83;;;2.53;;
11504;SDS011;5809;53.262;10.408;2022-09-17T06:28:40;9.03;;;2.53;;
11504;SDS011;5809;53.262;10.408;2022-09-17T06:31:08;14.17;;;2.90;;
11504;SDS011;5809;53.262;10.408;2022-09-17T06:33:37;8.40;;;2.20;;
11504;SDS011;5809;53.262;10.408;2022-09-17T06:36:05;13.07;;;2.67;;
11504;SDS011;5809;53.262;10.408;2022-09-17T06:38:34;15.83;;;2.70;;
11504;SDS011;5809;53.262;10.408;2022-09-17T06:41:01;13.77;;;2.60;;
11504;SDS011;5809;53.262;10.408;2022-09-17T06:43:29;12.20;;;2.90;;
11504;SDS011;5809;53.262;10.408;2022-09-17T06:45:57;14.00;;;2.50;;
11504;SDS011;5809;53.262;10.408;2022-09-17T06:48:25;13.50;;;2.37;;
11504;SDS011;5809;53.262;10.408;2022-09-17T06:50:53;13.33;;;2.53;;
11504;SDS011;5809;53.262;10.408;2022-09-17T06:53:21;11.00;;;1.87;;
11504;SDS011;5809;53.262;10.408;2022-09-17T06:55:48;14.50;;;2.53;;
11504;SDS011;5809;53.262;10.408;2022-09-17T06:58:16;10.57;;;2.50;;
11504;SDS011;5809;53.262;10.408;2022-09-17T07:00:43;10.90;;;2.60;;
11504;SDS011;5809;53.262;10.408;2022-09-17T07:03:10;11.40;;;2.53;;
11504;SDS011;5809;53.262;10.408;2022-09-17T07:05:37;11.97;;;2.97;;
11504;SDS011;5809;53.262;10.408;2022-09-17T07:08:05;15.23;;;2.80;;
11504;SDS011;5809;53.262;10.408;2022-09-17T07:10:33;12.40;;;2.57;;
11504;SDS011;5809;53.262;10.408;2022-09-17T07:12:59;9.07;;;2.37;;
11504;SDS011;5809;53.262;10.408;2022-09-17T07:15:26;9.63;;;2.30;;
11504;SDS011;5809;53.262;10.408;2022-09-17T07:17:54;8.75;;;2.60;;
11504;SDS011;5809;53.262;10.408;2022-09-17T07:20:21;8.45;;;2.13;;
11504;SDS011;5809;53.262;10.408;2022-09-17T07:22:53;9.90;;;2.42;;
11504;SDS011;5809;53.262;10.408;2022-09-17T07:25:22;7.18;;;2.05;;
11504;SDS011;5809;53.262;10.408;2022-09-17T07:27:50;11.90;;;2.75;;
11504;SDS011;5809;53.262;10.408;2022-09-17T07:30:17;8.63;;;2.28;;
11504;SDS011;5809;53.262;10.408;2022-09-17T07:32:45;9.38;;;2.45;;
11504;SDS011;5809;53.262;10.408;2022-09-17T07:35:12;6.85;;;2.30;;
11504;SDS011;5809;53.262;10.408;2022-09-17T07:37:39;12.80;;;2.65;;
11504;SDS011;5809;53.262;10.408;2022-09-17T07:40:06;11.38;;;2.30;;
11504;SDS011;5809;53.262;10.408;2022-09-17T07:42:35;9.35;;;2.38;;
11504;SDS011;5809;53.262;10.408;2022-09-17T07:45:03;8.05;;;2.10;;
11504;SDS011;5809;53.262;10.408;2022-09-17T07:47:30;9.18;;;2.08;;
11504;SDS011;5809;53.262;10.408;2022-09-17T07:49:57;8.73;;;1.98;;
11504;SDS011;5809;53.262;10.408;2022-09-17T07:52:24;5.82;;;2.20;;
11504;SDS011;5809;53.262;10.408;2022-09-17T07:54:51;10.50;;;2.33;;
11504;SDS011;5809;53.262;10.408;2022-09-17T07:57:19;8.75;;;2.35;;
11504;SDS011;5809;53.262;10.408;2022-09-17T07:59:47;8.13;;;2.13;;
11504;SDS011;5809;53.262;10.408;2022-09-17T08:02:14;9.55;;;2.58;;
11504;SDS011;5809;53.262;10.408;2022-09-17T08:04:42;8.55;;;2.15;;
11504;SDS011;5809;53.262;10.408;2022-09-17T08:07:09;8.40;;;2.25;;
11504;SDS011;5809;53.262;10.408;2022-09-17T08:09:37;9.48;;;2.13;;
11504;SDS011;5809;53.262;10.408;2022-09-17T08:12:04;9.63;;;2.38;;
11504;SDS011;5809;53.262;10.408;2022-09-17T08:14:31;9.77;;;2.28;;
11504;SDS011;5809;53.262;10.408;2022-09-17T08:16:59;8.45;;;2.28;;
11504;SDS011;5809;53.262;10.408;2022-09-17T08:19:29;7.30;;;1.90;;
11504;SDS011;5809;53.262;10.408;2022-09-17T08:21:57;9.30;;;2.20;;
11504;SDS011;5809;53.262;10.408;2022-09-17T08:24:24;7.40;;;2.08;;
11504;SDS011;5809;53.262;10.408;2022-09-17T08:26:51;9.85;;;2.28;;
11504;SDS011;5809;53.262;10.408;2022-09-17T08:29:18;10.15;;;2.47;;
11504;SDS011;5809;53.262;10.408;2022-09-17T08:31:45;8.15;;;1.95;;
11504;SDS011;5809;53.262;10.408;2022-09-17T08:34:14;12.02;;;2.20;;
11504;SDS011;5809;53.262;10.408;2022-09-17T08:36:42;11.27;;;2.30;;
11504;SDS011;5809;53.262;10.408;2022-09-17T08:39:09;6.90;;;1.85;;
11504;SDS011;5809;53.262;10.408;2022-09-17T08:41:41;9.13;;;2.08;;
11504;SDS011;5809;53.262;10.408;2022-09-17T08:44:19;9.13;;;1.95;;
11504;SDS011;5809;53.262;10.408;2022-09-17T08:46:52;8.15;;;2.00;;
11504;SDS011;5809;53.262;10.408;2022-09-17T08:49:27;9.93;;;1.95;;
11504;SDS011;5809;53.262;10.408;2022-09-17T08:52:00;3.90;;;1.38;;
11504;SDS011;5809;53.262;10.408;2022-09-17T08:54:35;6.15;;;1.83;;
11504;SDS011;5809;53.262;10.408;2022-09-17T08:57:09;5.57;;;1.50;;
11504;SDS011;5809;53.262;10.408;2022-09-17T08:59:41;5.05;;;1.30;;
11504;SDS011;5809;53.262;10.408;2022-09-17T09:02:14;8.30;;;1.83;;
11504;SDS011;5809;53.262;10.408;2022-09-17T09:04:57;6.03;;;1.75;;
11504;SDS011;5809;53.262;10.408;2022-09-17T09:07:25;8.02;;;1.85;;
11504;SDS011;5809;53.262;10.408;2022-09-17T09:09:57;8.00;;;2.05;;
11504;SDS011;5809;53.262;10.408;2022-09-17T09:12:38;5.13;;;1.90;;
11504;SDS011;5809;53.262;10.408;2022-09-17T09:15:07;6.45;;;1.77;;
11504;SDS011;5809;53.262;10.408;2022-09-17T09:17:42;5.15;;;1.75;;
11504;SDS011;5809;53.262;10.408;2022-09-17T09:20:15;3.25;;;1.20;;
11504;SDS011;5809;53.262;10.408;2022-09-17T09:22:45;6.70;;;1.60;;
11504;SDS011;5809;53.262;10.408;2022-09-17T09:25:17;4.53;;;1.40;;
11504;SDS011;5809;53.262;10.408;2022-09-17T09:27:54;3.92;;;1.33;;
11504;SDS011;5809;53.262;10.408;2022-09-17T09:30:22;4.25;;;1.20;;
11504;SDS011;5809;53.262;10.408;2022-09-17T09:32:54;4.45;;;1.33;;
11504;SDS011;5809;53.262;10.408;2022-09-17T09:35:26;5.45;;;1.42;;
11504;SDS011;5809;53.262;10.408;2022-09-17T09:37:56;4.75;;;1.10;;
11504;SDS011;5809;53.262;10.408;2022-09-17T09:40:35;5.18;;;1.52;;
11504;SDS011;5809;53.262;10.408;2022-09-17T09:43:10;4.00;;;1.23;;
11504;SDS011;5809;53.262;10.408;2022-09-17T09:45:42;3.53;;;1.35;;
11504;SDS011;5809;53.262;10.408;2022-09-17T09:48:21;4.40;;;1.45;;
11504;SDS011;5809;53.262;10.408;2022-09-17T09:50:57;4.78;;;1.17;;
11504;SDS011;5809;53.262;10.408;2022-09-17T09:53:38;5.35;;;1.60;;
11504;SDS011;5809;53.262;10.408;2022-09-17T09:56:26;4.50;;;1.30;;
11504;SDS011;5809;53.262;10.408;2022-09-17T09:58:54;6.57;;;1.40;;
11504;SDS011;5809;53.262;10.408;2022-09-17T10:01:21;4.10;;;1.60;;
11504;SDS011;5809;53.262;10.408;2022-09-17T10:03:50;6.05;;;1.33;;
11504;SDS011;5809;53.262;10.408;2022-09-17T10:06:19;8.70;;;1.63;;
11504;SDS011;5809;53.262;10.408;2022-09-17T10:11:29;4.60;;;1.10;;
11504;SDS011;5809;53.262;10.408;2022-09-17T10:14:01;3.55;;;1.17;;
11504;SDS011;5809;53.262;10.408;2022-09-17T10:16:39;2.35;;;1.00;;
11504;SDS011;5809;53.262;10.408;2022-09-17T10:19:11;5.53;;;1.08;;
11504;SDS011;5809;53.262;10.408;2022-09-17T10:21:45;5.03;;;1.08;;
11504;SDS011;5809;53.262;10.408;2022-09-17T10:24:14;3.67;;;1.05;;
11504;SDS011;5809;53.262;10.408;2022-09-17T10:26:45;3.33;;;0.90;;
11504;SDS011;5809;53.262;10.408;2022-09-17T10:29:12;8.43;;;1.30;;
11504;SDS011;5809;53.262;10.408;2022-09-17T10:31:45;3.33;;;1.00;;
11504;SDS011;5809;53.262;10.408;2022-09-17T10:34:17;3.25;;;1.30;;
11504;SDS011;5809;53.262;10.408;2022-09-17T10:36:47;1.40;;;0.90;;
11504;SDS011;5809;53.262;10.408;2022-09-17T10:42:01;2.90;;;0.70;;
11504;SDS011;5809;53.262;10.408;2022-09-17T10:44:29;2.05;;;1.10;;
11504;SDS011;5809;53.262;10.408;2022-09-17T10:47:01;3.50;;;0.93;;
11504;SDS011;5809;53.262;10.408;2022-09-17T10:49:33;3.00;;;0.95;;
11504;SDS011;5809;53.262;10.408;2022-09-17T10:52:04;1.85;;;0.75;;
11504;SDS011;5809;53.262;10.408;2022-09-17T10:54:39;1.35;;;0.60;;
11504;SDS011;5809;53.262;10.408;2022-09-17T10:57:08;1.15;;;0.50;;
11504;SDS011;5809;53.262;10.408;2022-09-17T10:59:49;1.73;;;0.60;;
11504;SDS011;5809;53.262;10.408;2022-09-17T11:02:41;1.67;;;0.70;;
11504;SDS011;5809;53.262;10.408;2022-09-17T11:05:19;0.65;;;0.45;;
11504;SDS011;5809;53.262;10.408;2022-09-17T11:07:51;1.50;;;0.55;;
11504;SDS011;5809;53.262;10.408;2022-09-17T11:10:26;1.95;;;0.60;;
11504;SDS011;5809;53.262;10.408;2022-09-17T11:12:58;2.85;;;0.50;;
11504;SDS011;5809;53.262;10.408;2022-09-17T11:15:41;2.13;;;0.60;;
11504;SDS011;5809;53.262;10.408;2022-09-17T11:18:17;1.30;;;0.50;;
11504;SDS011;5809;53.262;10.408;2022-09-17T11:20:57;1.92;;;0.60;;
11504;SDS011;5809;53.262;10.408;2022-09-17T11:23:59;1.10;;;0.50;;
11504;SDS011;5809;53.262;10.408;2022-09-17T11:26:29;1.80;;;0.82;;
11504;SDS011;5809;53.262;10.408;2022-09-17T11:29:01;1.95;;;0.75;;
11504;SDS011;5809;53.262;10.408;2022-09-17T11:31:44;2.28;;;0.60;;
11504;SDS011;5809;53.262;10.408;2022-09-17T11:34:19;1.25;;;0.55;;
11504;SDS011;5809;53.262;10.408;2022-09-17T11:36:53;1.80;;;0.80;;
11504;SDS011;5809;53.262;10.408;2022-09-17T11:39:22;2.75;;;1.00;;
11504;SDS011;5809;53.262;10.408;2022-09-17T11:41:51;1.77;;;0.65;;
11504;SDS011;5809;53.262;10.408;2022-09-17T11:44:21;2.55;;;0.95;;
11504;SDS011;5809;53.262;10.408;2022-09-17T11:46:50;5.90;;;1.17;;
11504;SDS011;5809;53.262;10.408;2022-09-17T11:49:22;4.07;;;1.15;;
11504;SDS011;5809;53.262;10.408;2022-09-17T11:51:52;4.43;;;1.00;;
11504;SDS011;5809;53.262;10.408;2022-09-17T11:54:23;2.40;;;1.17;;
11504;SDS011;5809;53.262;10.408;2022-09-17T11:56:56;2.83;;;1.10;;
11504;SDS011;5809;53.262;10.408;2022-09-17T11:59:32;3.30;;;0.90;;
11504;SDS011;5809;53.262;10.408;2022-09-17T12:02:01;2.60;;;0.90;;
11504;SDS011;5809;53.262;10.408;2022-09-17T12:04:36;4.30;;;1.08;;
11504;SDS011;5809;53.262;10.408;2022-09-17T12:09:56;3.70;;;1.20;;
11504;SDS011;5809;53.262;10.408;2022-09-17T12:12:25;2.03;;;0.90;;
11504;SDS011;5809;53.262;10.408;2022-09-17T12:14:54;2.55;;;1.02;;
11504;SDS011;5809;53.262;10.408;2022-09-17T12:17:24;3.13;;;1.08;;
11504;SDS011;5809;53.262;10.408;2022-09-17T12:19:53;3.55;;;1.00;;
11504;SDS011;5809;53.262;10.408;2022-09-17T12:22:24;3.45;;;1.27;;
11504;SDS011;5809;53.262;10.408;2022-09-17T12:24:52;5.25;;;1.52;;
11504;SDS011;5809;53.262;10.408;2022-09-17T12:27:26;2.40;;;0.95;;
11504;SDS011;5809;53.262;10.408;2022-09-17T12:30:03;3.53;;;1.20;;
11504;SDS011;5809;53.262;10.408;2022-09-17T12:32:34;3.70;;;1.13;;
11504;SDS011;5809;53.262;10.408;2022-09-17T12:35:06;4.53;;;1.15;;
11504;SDS011;5809;53.262;10.408;2022-09-17T12:37:41;3.88;;;1.20;;
11504;SDS011;5809;53.262;10.408;2022-09-17T12:40:11;3.67;;;1.15;;
11504;SDS011;5809;53.262;10.408;2022-09-17T12:42:45;3.55;;;1.10;;
11504;SDS011;5809;53.262;10.408;2022-09-17T12:45:19;2.50;;;1.10;;
11504;SDS011;5809;53.262;10.408;2022-09-17T12:47:50;3.53;;;0.85;;
11504;SDS011;5809;53.262;10.408;2022-09-17T12:50:22;4.45;;;1.20;;
11504;SDS011;5809;53.262;10.408;2022-09-17T12:52:58;3.78;;;1.10;;
11504;SDS011;5809;53.262;10.408;2022-09-17T12:55:35;3.30;;;1.17;;
11504;SDS011;5809;53.262;10.408;2022-09-17T12:58:09;4.90;;;1.23;;
11504;SDS011;5809;53.262;10.408;2022-09-17T13:00:46;3.25;;;0.95;;
11504;SDS011;5809;53.262;10.408;2022-09-17T13:03:17;6.68;;;1.10;;
11504;SDS011;5809;53.262;10.408;2022-09-17T13:06:01;3.28;;;1.00;;
11504;SDS011;5809;53.262;10.408;2022-09-17T13:08:40;3.72;;;1.20;;
11504;SDS011;5809;53.262;10.408;2022-09-17T13:11:37;3.10;;;1.02;;
11504;SDS011;5809;53.262;10.408;2022-09-17T13:14:11;2.17;;;0.82;;
11504;SDS011;5809;53.262;10.408;2022-09-17T13:16:47;4.85;;;1.38;;
11504;SDS011;5809;53.262;10.408;2022-09-17T13:19:20;4.17;;;1.20;;
11504;SDS011;5809;53.262;10.408;2022-09-17T13:21:51;3.03;;;1.17;;
11504;SDS011;5809;53.262;10.408;2022-09-17T13:24:20;4.80;;;1.30;;
11504;SDS011;5809;53.262;10.408;2022-09-17T13:26:49;6.65;;;1.30;;
11504;SDS011;5809;53.262;10.408;2022-09-17T13:38:11;8.40;;;2.00;;
11504;SDS011;5809;53.262;10.408;2022-09-17T13:40:39;4.35;;;1.42;;
11504;SDS011;5809;53.262;10.408;2022-09-17T13:43:07;5.47;;;1.40;;
11504;SDS011;5809;53.262;10.408;2022-09-17T13:46:03;2.58;;;1.20;;
11504;SDS011;5809;53.262;10.408;2022-09-17T13:48:42;4.32;;;1.27;;
11504;SDS011;5809;53.262;10.408;2022-09-17T13:54:12;7.35;;;1.42;;
11504;SDS011;5809;53.262;10.408;2022-09-17T13:56:41;4.03;;;1.30;;
11504;SDS011;5809;53.262;10.408;2022-09-17T13:59:10;4.32;;;1.30;;
11504;SDS011;5809;53.262;10.408;2022-09-17T14:04:49;2.70;;;1.10;;
11504;SDS011;5809;53.262;10.408;2022-09-17T14:07:30;5.15;;;1.20;;
11504;SDS011;5809;53.262;10.408;2022-09-17T14:09:57;4.18;;;1.30;;
11504;SDS011;5809;53.262;10.408;2022-09-17T14:15:36;2.80;;;1.27;;
11504;SDS011;5809;53.262;10.408;2022-09-17T14:18:32;2.97;;;1.02;;
11504;SDS011;5809;53.262;10.408;2022-09-17T14:21:05;3.75;;;1.35;;
11504;SDS011;5809;53.262;10.408;2022-09-17T14:23:33;3.15;;;1.20;;
11504;SDS011;5809;53.262;10.408;2022-09-17T14:26:01;3.92;;;1.40;;
11504;SDS011;5809;53.262;10.408;2022-09-17T14:28:32;3.83;;;1.15;;
11504;SDS011;5809;53.262;10.408;2022-09-17T14:31:00;3.80;;;1.15;;
11504;SDS011;5809;53.262;10.408;2022-09-17T14:33:28;4.22;;;1.33;;
11504;SDS011;5809;53.262;10.408;2022-09-17T14:35:58;4.28;;;1.08;;
11504;SDS011;5809;53.262;10.408;2022-09-17T14:38:30;4.40;;;1.10;;
11504;SDS011;5809;53.262;10.408;2022-09-17T14:40:58;4.00;;;1.63;;
11504;SDS011;5809;53.262;10.408;2022-09-17T14:43:29;6.15;;;1.60;;
11504;SDS011;5809;53.262;10.408;2022-09-17T14:46:04;3.67;;;1.40;;
11504;SDS011;5809;53.262;10.408;2022-09-17T14:48:33;4.38;;;1.20;;
11504;SDS011;5809;53.262;10.408;2022-09-17T14:51:16;4.10;;;0.95;;
11504;SDS011;5809;53.262;10.408;2022-09-17T14:56:38;5.38;;;1.65;;
11504;SDS011;5809;53.262;10.408;2022-09-17T14:59:10;4.43;;;1.52;;
11504;SDS011;5809;53.262;10.408;2022-09-17T15:01:41;4.15;;;1.20;;
11504;SDS011;5809;53.262;10.408;2022-09-17T15:04:19;4.60;;;1.40;;
11504;SDS011;5809;53.262;10.408;2022-09-17T15:06:48;6.30;;;1.35;;
11504;SDS011;5809;53.262;10.408;2022-09-17T15:09:17;5.30;;;1.55;;
11504;SDS011;5809;53.262;10.408;2022-09-17T15:11:45;3.60;;;1.15;;
11504;SDS011;5809;53.262;10.408;2022-09-17T15:14:15;6.75;;;1.40;;
11504;SDS011;5809;53.262;10.408;2022-09-17T15:16:46;4.63;;;1.42;;
11504;SDS011;5809;53.262;10.408;2022-09-17T15:19:14;4.18;;;1.45;;
11504;SDS011;5809;53.262;10.408;2022-09-17T15:21:45;2.67;;;1.35;;
11504;SDS011;5809;53.262;10.408;2022-09-17T15:24:19;2.38;;;0.98;;
11504;SDS011;5809;53.262;10.408;2022-09-17T15:26:54;4.30;;;1.10;;
11504;SDS011;5809;53.262;10.408;2022-09-17T15:29:24;6.95;;;1.48;;
11504;SDS011;5809;53.262;10.408;2022-09-17T15:31:52;7.28;;;1.70;;
11504;SDS011;5809;53.262;10.408;2022-09-17T15:34:19;7.85;;;1.85;;